sensor_id;sensor_type;location;lat;lon;timestamp;P1;durP1;ratioP1;P2;durP2;ratioP2
17741;SDS011;8993;51.822;-2.268;2024-01-27T00:00:37;19.49;;;3.25;;
17741;SDS011;8993;51.822;-2.268;2024-01-27T00:05:41;17.56;;;3.12;;
17741;SDS011;8993;51.822;-2.268;2024-01-27T00:10:45;20.08;;;2.87;;
17741;SDS011;8993;51.822;-2.268;2024-01-27T00:15:48;18.30;;;2.91;;
17741;SDS011;8993;51.822;-2.268;2024-01-27T00:20:52;21.42;;;3.39;;
17741;SDS011;8993;51.822;-2.268;2024-01-27T00:25:56;20.76;;;3.33;;
17741;SDS011;8993;51.822;-2.268;2024-01-27T00:30:59;19.03;;;3.01;;
17741;SDS011;8993;51.822;-2.268;2024-01-27T00:36:03;20.92;;;3.04;;
17741;SDS011;8993;51.822;-2.268;2024-01-27T00:41:07;19.80;;;2.90;;
17741;SDS011;8993;51.822;-2.268;2024-01-27T00:46:10;21.20;;;2.96;;
17741;SDS011;8993;51.822;-2.268;2024-01-27T00:51:14;24.44;;;3.20;;
17741;SDS011;8993;51.822;-2.268;2024-01-27T00:56:17;19.07;;;2.63;;
17741;SDS011;8993;51.822;-2.268;2024-01-27T01:01:21;21.07;;;3.05;;
17741;SDS011;8993;51.822;-2.268;2024-01-27T01:06:25;17.58;;;2.58;;
17741;SDS011;8993;51.822;-2.268;2024-01-27T01:11:28;18.62;;;2.87;;
17741;SDS011;8993;51.822;-2.268;2024-01-27T01:16:32;22.03;;;3.07;;
17741;SDS011;8993;51.822;-2.268;2024-01-27T01:21:36;21.89;;;2.57;;
17741;SDS011;8993;51.822;-2.268;2024-01-27T01:26:39;20.59;;;3.08;;
17741;SDS011;8993;51.822;-2.268;2024-01-27T01:31:43;18.77;;;2.73;;
17741;SDS011;8993;51.822;-2.268;2024-01-27T01:36:46;20.34;;;2.93;;
17741;SDS011;8993;51.822;-2.268;2024-01-27T01:41:50;19.62;;;2.91;;
17741;SDS011;8993;51.822;-2.268;2024-01-27T01:46:54;21.81;;;2.85;;
17741;SDS011;8993;51.822;-2.268;2024-01-27T01:51:57;21.08;;;2.84;;
17741;SDS011;8993;51.822;-2.268;2024-01-27T01:57:01;19.26;;;3.02;;
17741;SDS011;8993;51.822;-2.268;2024-01-27T02:02:05;16.62;;;2.47;;
17741;SDS011;8993;51.822;-2.268;2024-01-27T02:07:08;18.94;;;2.74;;
17741;SDS011;8993;51.822;-2.268;2024-01-27T02:12:12;18.42;;;2.98;;
17741;SDS011;8993;51.822;-2.268;2024-01-27T02:17:16;18.36;;;2.61;;
17741;SDS011;8993;51.822;-2.268;2024-01-27T02:22:19;21.43;;;2.73;;
17741;SDS011;8993;51.822;-2.268;2024-01-27T02:27:23;21.97;;;3.06;;
17741;SDS011;8993;51.822;-2.268;2024-01-27T02:32:27;15.51;;;2.73;;
17741;SDS011;8993;51.822;-2.268;2024-01-27T02:37:30;21.87;;;2.93;;
17741;SDS011;8993;51.822;-2.268;2024-01-27T02:42:34;19.07;;;2.69;;
17741;SDS011;8993;51.822;-2.268;2024-01-27T02:47:37;20.44;;;2.70;;
17741;SDS011;8993;51.822;-2.268;2024-01-27T02:52:41;18.03;;;2.59;;
17741;SDS011;8993;51.822;-2.268;2024-01-27T02:57:44;19.27;;;2.50;;
17741;SDS011;8993;51.822;-2.268;2024-01-27T03:02:48;19.96;;;2.39;;
17741;SDS011;8993;51.822;-2.268;2024-01-27T03:07:52;19.31;;;2.48;;
17741;SDS011;8993;51.822;-2.268;2024-01-27T03:12:55;19.21;;;2.42;;
17741;SDS011;8993;51.822;-2.268;2024-01-27T03:17:59;20.23;;;2.53;;
17741;SDS011;8993;51.822;-2.268;2024-01-27T03:23:03;18.02;;;2.61;;
17741;SDS011;8993;51.822;-2.268;2024-01-27T03:28:06;18.73;;;2.77;;
17741;SDS011;8993;51.822;-2.268;2024-01-27T03:33:10;20.00;;;2.64;;
17741;SDS011;8993;51.822;-2.268;2024-01-27T03:38:13;16.18;;;2.28;;
17741;SDS011;8993;51.822;-2.268;2024-01-27T03:43:17;19.05;;;2.71;;
17741;SDS011;8993;51.822;-2.268;2024-01-27T03:48:21;19.48;;;2.76;;
17741;SDS011;8993;51.822;-2.268;2024-01-27T03:53:24;16.59;;;2.30;;
17741;SDS011;8993;51.822;-2.268;2024-01-27T03:58:28;19.24;;;2.69;;
17741;SDS011;8993;51.822;-2.268;2024-01-27T04:03:32;18.08;;;2.73;;
17741;SDS011;8993;51.822;-2.268;2024-01-27T04:08:35;16.97;;;2.53;;
17741;SDS011;8993;51.822;-2.268;2024-01-27T04:13:39;20.27;;;2.55;;
17741;SDS011;8993;51.822;-2.268;2024-01-27T04:18:42;17.75;;;2.31;;
17741;SDS011;8993;51.822;-2.268;2024-01-27T04:23:46;20.49;;;2.52;;
17741;SDS011;8993;51.822;-2.268;2024-01-27T04:28:50;16.31;;;2.22;;
17741;SDS011;8993;51.822;-2.268;2024-01-27T04:33:56;16.61;;;2.24;;
17741;SDS011;8993;51.822;-2.268;2024-01-27T04:38:59;17.82;;;2.36;;
17741;SDS011;8993;51.822;-2.268;2024-01-27T04:44:03;16.82;;;2.54;;
17741;SDS011;8993;51.822;-2.268;2024-01-27T04:49:06;17.78;;;2.68;;
17741;SDS011;8993;51.822;-2.268;2024-01-27T04:59:12;19.86;;;2.44;;
17741;SDS011;8993;51.822;-2.268;2024-01-27T05:04:17;20.18;;;2.42;;
17741;SDS011;8993;51.822;-2.268;2024-01-27T05:09:21;17.89;;;2.29;;
17741;SDS011;8993;51.822;-2.268;2024-01-27T05:14:25;16.21;;;2.24;;
17741;SDS011;8993;51.822;-2.268;2024-01-27T05:19:29;17.02;;;2.16;;
17741;SDS011;8993;51.822;-2.268;2024-01-27T05:24:33;15.22;;;2.11;;
17741;SDS011;8993;51.822;-2.268;2024-01-27T05:29:38;15.53;;;2.31;;
17741;SDS011;8993;51.822;-2.268;2024-01-27T05:34:41;17.58;;;2.12;;
17741;SDS011;8993;51.822;-2.268;2024-01-27T05:39:45;18.47;;;2.63;;
17741;SDS011;8993;51.822;-2.268;2024-01-27T05:44:49;16.60;;;2.41;;
17741;SDS011;8993;51.822;-2.268;2024-01-27T05:49:53;16.36;;;1.97;;
17741;SDS011;8993;51.822;-2.268;2024-01-27T05:54:57;15.40;;;2.18;;
17741;SDS011;8993;51.822;-2.268;2024-01-27T06:00:01;16.78;;;2.04;;
17741;SDS011;8993;51.822;-2.268;2024-01-27T06:05:05;16.65;;;2.60;;
17741;SDS011;8993;51.822;-2.268;2024-01-27T06:10:09;17.53;;;2.10;;
17741;SDS011;8993;51.822;-2.268;2024-01-27T06:15:12;16.77;;;2.15;;
17741;SDS011;8993;51.822;-2.268;2024-01-27T06:20:16;16.70;;;2.24;;
17741;SDS011;8993;51.822;-2.268;2024-01-27T06:25:20;16.09;;;1.94;;
17741;SDS011;8993;51.822;-2.268;2024-01-27T06:30:23;16.00;;;2.15;;
17741;SDS011;8993;51.822;-2.268;2024-01-27T06:35:27;11.74;;;1.71;;
17741;SDS011;8993;51.822;-2.268;2024-01-27T06:40:31;19.13;;;2.79;;
17741;SDS011;8993;51.822;-2.268;2024-01-27T06:45:34;16.14;;;2.07;;
17741;SDS011;8993;51.822;-2.268;2024-01-27T06:50:38;14.23;;;2.18;;
17741;SDS011;8993;51.822;-2.268;2024-01-27T06:55:42;15.98;;;2.14;;
17741;SDS011;8993;51.822;-2.268;2024-01-27T07:00:45;15.89;;;2.22;;
17741;SDS011;8993;51.822;-2.268;2024-01-27T07:05:49;16.82;;;2.38;;
17741;SDS011;8993;51.822;-2.268;2024-01-27T07:10:52;19.05;;;2.33;;
17741;SDS011;8993;51.822;-2.268;2024-01-27T07:15:56;13.40;;;2.05;;
17741;SDS011;8993;51.822;-2.268;2024-01-27T07:21:00;16.76;;;2.24;;
17741;SDS011;8993;51.822;-2.268;2024-01-27T07:26:04;15.76;;;1.97;;
17741;SDS011;8993;51.822;-2.268;2024-01-27T07:31:08;14.28;;;2.13;;
17741;SDS011;8993;51.822;-2.268;2024-01-27T07:36:11;16.03;;;2.43;;
17741;SDS011;8993;51.822;-2.268;2024-01-27T07:41:15;18.77;;;2.30;;
17741;SDS011;8993;51.822;-2.268;2024-01-27T07:46:18;16.53;;;2.02;;
17741;SDS011;8993;51.822;-2.268;2024-01-27T07:51:22;13.53;;;1.98;;
17741;SDS011;8993;51.822;-2.268;2024-01-27T07:56:26;14.91;;;2.06;;
17741;SDS011;8993;51.822;-2.268;2024-01-27T08:01:30;15.02;;;2.28;;
17741;SDS011;8993;51.822;-2.268;2024-01-27T08:06:33;17.43;;;2.53;;
17741;SDS011;8993;51.822;-2.268;2024-01-27T08:11:37;16.03;;;2.18;;
17741;SDS011;8993;51.822;-2.268;2024-01-27T08:16:41;14.67;;;2.08;;
17741;SDS011;8993;51.822;-2.268;2024-01-27T08:21:45;14.29;;;2.00;;
17741;SDS011;8993;51.822;-2.268;2024-01-27T08:26:48;18.48;;;2.31;;
17741;SDS011;8993;51.822;-2.268;2024-01-27T08:31:52;16.71;;;2.28;;
17741;SDS011;8993;51.822;-2.268;2024-01-27T08:36:59;16.68;;;2.17;;
17741;SDS011;8993;51.822;-2.268;2024-01-27T08:42:00;14.04;;;2.40;;
17741;SDS011;8993;51.822;-2.268;2024-01-27T08:47:03;13.33;;;1.93;;
17741;SDS011;8993;51.822;-2.268;2024-01-27T08:52:07;17.37;;;2.25;;
17741;SDS011;8993;51.822;-2.268;2024-01-27T08:57:11;13.74;;;2.19;;
17741;SDS011;8993;51.822;-2.268;2024-01-27T09:02:14;16.04;;;2.04;;
17741;SDS011;8993;51.822;-2.268;2024-01-27T09:07:18;14.72;;;2.11;;
17741;SDS011;8993;51.822;-2.268;2024-01-27T09:12:22;16.42;;;2.37;;
17741;SDS011;8993;51.822;-2.268;2024-01-27T09:17:26;12.44;;;1.92;;
17741;SDS011;8993;51.822;-2.268;2024-01-27T09:22:29;15.03;;;2.61;;
17741;SDS011;8993;51.822;-2.268;2024-01-27T09:27:33;17.47;;;2.72;;
17741;SDS011;8993;51.822;-2.268;2024-01-27T09:32:37;18.34;;;2.53;;
17741;SDS011;8993;51.822;-2.268;2024-01-27T09:37:40;16.74;;;2.70;;
17741;SDS011;8993;51.822;-2.268;2024-01-27T09:42:45;14.47;;;2.47;;
17741;SDS011;8993;51.822;-2.268;2024-01-27T09:47:48;18.04;;;2.70;;
17741;SDS011;8993;51.822;-2.268;2024-01-27T09:52:51;17.55;;;2.49;;
17741;SDS011;8993;51.822;-2.268;2024-01-27T09:57:55;16.28;;;2.39;;
17741;SDS011;8993;51.822;-2.268;2024-01-27T10:02:59;13.97;;;2.38;;
17741;SDS011;8993;51.822;-2.268;2024-01-27T10:08:05;11.88;;;2.03;;
17741;SDS011;8993;51.822;-2.268;2024-01-27T10:13:06;15.74;;;2.37;;
17741;SDS011;8993;51.822;-2.268;2024-01-27T10:18:10;16.19;;;2.21;;
17741;SDS011;8993;51.822;-2.268;2024-01-27T10:23:14;14.04;;;1.96;;
17741;SDS011;8993;51.822;-2.268;2024-01-27T10:28:18;16.91;;;1.91;;
17741;SDS011;8993;51.822;-2.268;2024-01-27T10:33:21;16.25;;;1.89;;
17741;SDS011;8993;51.822;-2.268;2024-01-27T10:38:33;14.42;;;2.27;;
17741;SDS011;8993;51.822;-2.268;2024-01-27T10:43:29;13.72;;;2.05;;
17741;SDS011;8993;51.822;-2.268;2024-01-27T10:48:33;16.04;;;2.01;;
17741;SDS011;8993;51.822;-2.268;2024-01-27T10:53:36;19.13;;;2.59;;
17741;SDS011;8993;51.822;-2.268;2024-01-27T10:58:40;17.10;;;2.44;;
17741;SDS011;8993;51.822;-2.268;2024-01-27T11:03:44;15.82;;;2.14;;
17741;SDS011;8993;51.822;-2.268;2024-01-27T11:08:48;15.82;;;2.17;;
17741;SDS011;8993;51.822;-2.268;2024-01-27T11:13:53;14.70;;;2.21;;
17741;SDS011;8993;51.822;-2.268;2024-01-27T11:18:56;16.02;;;2.49;;
17741;SDS011;8993;51.822;-2.268;2024-01-27T11:24:12;17.49;;;2.48;;
17741;SDS011;8993;51.822;-2.268;2024-01-27T11:29:09;13.48;;;2.56;;
17741;SDS011;8993;51.822;-2.268;2024-01-27T11:34:12;17.11;;;2.44;;
17741;SDS011;8993;51.822;-2.268;2024-01-27T11:39:24;17.82;;;2.63;;
17741;SDS011;8993;51.822;-2.268;2024-01-27T11:44:20;18.65;;;2.62;;
17741;SDS011;8993;51.822;-2.268;2024-01-27T11:49:24;15.21;;;2.17;;
17741;SDS011;8993;51.822;-2.268;2024-01-27T11:54:28;18.82;;;2.43;;
17741;SDS011;8993;51.822;-2.268;2024-01-27T11:59:31;19.00;;;2.66;;
17741;SDS011;8993;51.822;-2.268;2024-01-27T12:04:35;18.93;;;2.60;;
17741;SDS011;8993;51.822;-2.268;2024-01-27T12:09:38;16.36;;;2.46;;
17741;SDS011;8993;51.822;-2.268;2024-01-27T12:14:44;16.21;;;2.52;;
17741;SDS011;8993;51.822;-2.268;2024-01-27T12:19:46;20.34;;;2.96;;
17741;SDS011;8993;51.822;-2.268;2024-01-27T12:24:50;15.87;;;2.68;;
17741;SDS011;8993;51.822;-2.268;2024-01-27T12:29:55;18.90;;;3.06;;
17741;SDS011;8993;51.822;-2.268;2024-01-27T12:34:57;18.94;;;2.77;;
17741;SDS011;8993;51.822;-2.268;2024-01-27T12:40:01;18.55;;;2.81;;
17741;SDS011;8993;51.822;-2.268;2024-01-27T12:45:05;18.16;;;2.53;;
17741;SDS011;8993;51.822;-2.268;2024-01-27T12:50:09;16.33;;;2.28;;
17741;SDS011;8993;51.822;-2.268;2024-01-27T12:55:12;16.14;;;2.43;;
17741;SDS011;8993;51.822;-2.268;2024-01-27T13:00:16;19.86;;;2.56;;
17741;SDS011;8993;51.822;-2.268;2024-01-27T13:05:19;17.81;;;2.79;;
17741;SDS011;8993;51.822;-2.268;2024-01-27T13:10:23;20.43;;;2.59;;
17741;SDS011;8993;51.822;-2.268;2024-01-27T13:15:27;17.20;;;2.39;;
17741;SDS011;8993;51.822;-2.268;2024-01-27T13:20:30;16.15;;;2.48;;
17741;SDS011;8993;51.822;-2.268;2024-01-27T13:25:36;18.29;;;2.71;;
17741;SDS011;8993;51.822;-2.268;2024-01-27T13:30:38;16.78;;;2.42;;
17741;SDS011;8993;51.822;-2.268;2024-01-27T13:35:41;16.89;;;2.41;;
17741;SDS011;8993;51.822;-2.268;2024-01-27T13:40:45;15.23;;;2.34;;
17741;SDS011;8993;51.822;-2.268;2024-01-27T13:45:48;15.79;;;2.67;;
17741;SDS011;8993;51.822;-2.268;2024-01-27T13:50:52;16.24;;;2.33;;
17741;SDS011;8993;51.822;-2.268;2024-01-27T13:55:56;15.18;;;2.49;;
17741;SDS011;8993;51.822;-2.268;2024-01-27T14:00:59;16.99;;;2.39;;
17741;SDS011;8993;51.822;-2.268;2024-01-27T14:06:03;17.58;;;2.53;;
17741;SDS011;8993;51.822;-2.268;2024-01-27T14:11:07;17.11;;;2.54;;
17741;SDS011;8993;51.822;-2.268;2024-01-27T14:16:10;19.98;;;2.55;;
17741;SDS011;8993;51.822;-2.268;2024-01-27T14:21:15;17.03;;;2.74;;
17741;SDS011;8993;51.822;-2.268;2024-01-27T14:26:19;16.78;;;2.63;;
17741;SDS011;8993;51.822;-2.268;2024-01-27T14:31:23;18.00;;;2.49;;
17741;SDS011;8993;51.822;-2.268;2024-01-27T14:36:26;20.60;;;2.78;;
17741;SDS011;8993;51.822;-2.268;2024-01-27T14:41:30;19.77;;;3.03;;
17741;SDS011;8993;51.822;-2.268;2024-01-27T14:46:34;19.31;;;3.09;;
17741;SDS011;8993;51.822;-2.268;2024-01-27T14:51:37;20.56;;;3.05;;
17741;SDS011;8993;51.822;-2.268;2024-01-27T14:56:41;20.26;;;2.69;;
17741;SDS011;8993;51.822;-2.268;2024-01-27T15:01:45;19.74;;;2.85;;
17741;SDS011;8993;51.822;-2.268;2024-01-27T15:06:48;20.38;;;2.84;;
17741;SDS011;8993;51.822;-2.268;2024-01-27T15:11:52;18.35;;;3.47;;
17741;SDS011;8993;51.822;-2.268;2024-01-27T15:16:56;16.28;;;2.65;;
17741;SDS011;8993;51.822;-2.268;2024-01-27T15:22:00;19.17;;;2.92;;
17741;SDS011;8993;51.822;-2.268;2024-01-27T15:27:04;17.04;;;2.97;;
17741;SDS011;8993;51.822;-2.268;2024-01-27T15:32:07;17.32;;;2.56;;
17741;SDS011;8993;51.822;-2.268;2024-01-27T15:37:10;20.72;;;2.94;;
17741;SDS011;8993;51.822;-2.268;2024-01-27T15:42:14;18.19;;;2.75;;
17741;SDS011;8993;51.822;-2.268;2024-01-27T15:47:18;18.29;;;3.15;;
17741;SDS011;8993;51.822;-2.268;2024-01-27T15:52:22;19.84;;;2.80;;
17741;SDS011;8993;51.822;-2.268;2024-01-27T15:57:26;18.46;;;2.96;;
17741;SDS011;8993;51.822;-2.268;2024-01-27T16:02:29;15.19;;;2.57;;
17741;SDS011;8993;51.822;-2.268;2024-01-27T16:07:33;20.31;;;2.87;;
17741;SDS011;8993;51.822;-2.268;2024-01-27T16:12:37;22.28;;;3.09;;
17741;SDS011;8993;51.822;-2.268;2024-01-27T16:17:40;19.64;;;2.93;;
17741;SDS011;8993;51.822;-2.268;2024-01-27T16:22:44;19.73;;;3.13;;
17741;SDS011;8993;51.822;-2.268;2024-01-27T16:27:48;17.47;;;2.52;;
17741;SDS011;8993;51.822;-2.268;2024-01-27T16:32:52;19.15;;;2.84;;
17741;SDS011;8993;51.822;-2.268;2024-01-27T16:37:55;20.37;;;3.26;;
17741;SDS011;8993;51.822;-2.268;2024-01-27T16:42:59;19.70;;;3.07;;
17741;SDS011;8993;51.822;-2.268;2024-01-27T16:48:03;17.97;;;2.80;;
17741;SDS011;8993;51.822;-2.268;2024-01-27T16:53:06;17.93;;;2.80;;
17741;SDS011;8993;51.822;-2.268;2024-01-27T16:58:10;18.92;;;3.35;;
17741;SDS011;8993;51.822;-2.268;2024-01-27T17:03:14;19.47;;;3.16;;
17741;SDS011;8993;51.822;-2.268;2024-01-27T17:08:18;20.12;;;3.17;;
17741;SDS011;8993;51.822;-2.268;2024-01-27T17:13:22;17.68;;;2.96;;
17741;SDS011;8993;51.822;-2.268;2024-01-27T17:18:25;17.45;;;3.22;;
17741;SDS011;8993;51.822;-2.268;2024-01-27T17:23:29;18.27;;;3.19;;
17741;SDS011;8993;51.822;-2.268;2024-01-27T17:28:33;17.77;;;2.81;;
17741;SDS011;8993;51.822;-2.268;2024-01-27T17:33:37;18.99;;;3.15;;
17741;SDS011;8993;51.822;-2.268;2024-01-27T17:38:40;16.53;;;3.14;;
17741;SDS011;8993;51.822;-2.268;2024-01-27T17:43:44;16.35;;;2.75;;
17741;SDS011;8993;51.822;-2.268;2024-01-27T17:48:47;17.86;;;2.94;;
17741;SDS011;8993;51.822;-2.268;2024-01-27T17:53:51;22.23;;;3.26;;
17741;SDS011;8993;51.822;-2.268;2024-01-27T17:58:55;19.88;;;3.27;;
17741;SDS011;8993;51.822;-2.268;2024-01-27T18:03:59;18.97;;;3.07;;
17741;SDS011;8993;51.822;-2.268;2024-01-27T18:09:02;17.80;;;2.96;;
17741;SDS011;8993;51.822;-2.268;2024-01-27T18:14:06;18.36;;;3.88;;
17741;SDS011;8993;51.822;-2.268;2024-01-27T18:19:10;16.52;;;3.35;;
17741;SDS011;8993;51.822;-2.268;2024-01-27T18:24:14;21.38;;;3.27;;
17741;SDS011;8993;51.822;-2.268;2024-01-27T18:29:17;21.01;;;3.54;;
17741;SDS011;8993;51.822;-2.268;2024-01-27T18:34:22;16.46;;;3.18;;
17741;SDS011;8993;51.822;-2.268;2024-01-27T18:39:25;19.08;;;3.34;;
17741;SDS011;8993;51.822;-2.268;2024-01-27T18:44:29;17.27;;;3.09;;
17741;SDS011;8993;51.822;-2.268;2024-01-27T18:49:33;19.38;;;3.39;;
17741;SDS011;8993;51.822;-2.268;2024-01-27T18:54:36;20.10;;;3.22;;
17741;SDS011;8993;51.822;-2.268;2024-01-27T18:59:40;20.04;;;3.30;;
17741;SDS011;8993;51.822;-2.268;2024-01-27T19:04:44;18.90;;;3.13;;
17741;SDS011;8993;51.822;-2.268;2024-01-27T19:09:48;17.95;;;2.91;;
17741;SDS011;8993;51.822;-2.268;2024-01-27T19:14:52;18.39;;;3.45;;
17741;SDS011;8993;51.822;-2.268;2024-01-27T19:19:55;19.34;;;3.36;;
17741;SDS011;8993;51.822;-2.268;2024-01-27T19:24:59;20.24;;;3.53;;
17741;SDS011;8993;51.822;-2.268;2024-01-27T19:30:04;15.92;;;3.36;;
17741;SDS011;8993;51.822;-2.268;2024-01-27T19:35:06;18.43;;;3.22;;
17741;SDS011;8993;51.822;-2.268;2024-01-27T19:40:10;16.70;;;3.18;;
17741;SDS011;8993;51.822;-2.268;2024-01-27T19:45:13;17.47;;;3.19;;
17741;SDS011;8993;51.822;-2.268;2024-01-27T19:50:17;20.14;;;3.44;;
17741;SDS011;8993;51.822;-2.268;2024-01-27T19:55:20;16.96;;;2.80;;
17741;SDS011;8993;51.822;-2.268;2024-01-27T20:00:24;16.93;;;2.89;;
17741;SDS011;8993;51.822;-2.268;2024-01-27T20:05:28;18.75;;;2.92;;
17741;SDS011;8993;51.822;-2.268;2024-01-27T20:10:31;16.21;;;2.47;;
17741;SDS011;8993;51.822;-2.268;2024-01-27T20:15:35;15.63;;;2.81;;
17741;SDS011;8993;51.822;-2.268;2024-01-27T20:20:39;16.80;;;2.85;;
17741;SDS011;8993;51.822;-2.268;2024-01-27T20:25:42;16.21;;;3.00;;
17741;SDS011;8993;51.822;-2.268;2024-01-27T20:30:46;14.86;;;2.75;;
17741;SDS011;8993;51.822;-2.268;2024-01-27T20:35:49;16.31;;;2.81;;
17741;SDS011;8993;51.822;-2.268;2024-01-27T20:40:53;17.52;;;3.12;;
17741;SDS011;8993;51.822;-2.268;2024-01-27T20:45:56;17.90;;;3.01;;
17741;SDS011;8993;51.822;-2.268;2024-01-27T20:51:00;18.68;;;3.13;;
17741;SDS011;8993;51.822;-2.268;2024-01-27T20:56:04;18.32;;;2.96;;
17741;SDS011;8993;51.822;-2.268;2024-01-27T21:01:07;19.39;;;3.44;;
17741;SDS011;8993;51.822;-2.268;2024-01-27T21:06:11;21.66;;;3.68;;
17741;SDS011;8993;51.822;-2.268;2024-01-27T21:11:14;21.85;;;3.48;;
17741;SDS011;8993;51.822;-2.268;2024-01-27T21:16:18;17.84;;;3.14;;
17741;SDS011;8993;51.822;-2.268;2024-01-27T21:21:22;20.72;;;3.64;;
17741;SDS011;8993;51.822;-2.268;2024-01-27T21:26:25;18.86;;;3.45;;
17741;SDS011;8993;51.822;-2.268;2024-01-27T21:31:29;17.83;;;3.09;;
17741;SDS011;8993;51.822;-2.268;2024-01-27T21:36:32;21.37;;;3.04;;
17741;SDS011;8993;51.822;-2.268;2024-01-27T21:41:36;16.75;;;2.61;;
17741;SDS011;8993;51.822;-2.268;2024-01-27T21:46:40;20.28;;;3.31;;
17741;SDS011;8993;51.822;-2.268;2024-01-27T21:51:46;21.29;;;3.27;;
17741;SDS011;8993;51.822;-2.268;2024-01-27T21:56:47;18.31;;;3.18;;
17741;SDS011;8993;51.822;-2.268;2024-01-27T22:01:51;18.07;;;3.11;;
17741;SDS011;8993;51.822;-2.268;2024-01-27T22:06:54;18.53;;;3.13;;
17741;SDS011;8993;51.822;-2.268;2024-01-27T22:11:58;18.63;;;3.15;;
17741;SDS011;8993;51.822;-2.268;2024-01-27T22:17:01;19.20;;;3.37;;
17741;SDS011;8993;51.822;-2.268;2024-01-27T22:22:05;19.69;;;3.69;;
17741;SDS011;8993;51.822;-2.268;2024-01-27T22:27:08;21.20;;;3.61;;
17741;SDS011;8993;51.822;-2.268;2024-01-27T22:32:12;17.30;;;3.48;;
17741;SDS011;8993;51.822;-2.268;2024-01-27T22:37:16;19.13;;;3.28;;
17741;SDS011;8993;51.822;-2.268;2024-01-27T22:42:19;19.80;;;3.50;;
17741;SDS011;8993;51.822;-2.268;2024-01-27T22:47:23;16.33;;;3.41;;
17741;SDS011;8993;51.822;-2.268;2024-01-27T22:52:26;18.41;;;3.51;;
17741;SDS011;8993;51.822;-2.268;2024-01-27T22:57:30;17.33;;;3.26;;
17741;SDS011;8993;51.822;-2.268;2024-01-27T23:02:34;21.84;;;3.70;;
17741;SDS011;8993;51.822;-2.268;2024-01-27T23:07:37;17.81;;;3.54;;
17741;SDS011;8993;51.822;-2.268;2024-01-27T23:12:41;16.92;;;3.40;;
17741;SDS011;8993;51.822;-2.268;2024-01-27T23:17:44;19.77;;;3.73;;
17741;SDS011;8993;51.822;-2.268;2024-01-27T23:22:48;19.16;;;3.13;;
17741;SDS011;8993;51.822;-2.268;2024-01-27T23:27:52;18.57;;;3.81;;
17741;SDS011;8993;51.822;-2.268;2024-01-27T23:32:56;16.08;;;3.54;;
17741;SDS011;8993;51.822;-2.268;2024-01-27T23:37:59;18.48;;;3.74;;
17741;SDS011;8993;51.822;-2.268;2024-01-27T23:43:02;19.32;;;3.48;;
17741;SDS011;8993;51.822;-2.268;2024-01-27T23:48:06;21.69;;;3.66;;
17741;SDS011;8993;51.822;-2.268;2024-01-27T23:53:10;20.79;;;3.71;;
17741;SDS011;8993;51.822;-2.268;2024-01-27T23:58:13;19.22;;;3.58;;
